createdAt,value
2023-04-08T00:00:51.174Z,8.87
2023-04-08T00:03:53.492Z,10.27
2023-04-08T00:06:56.386Z,8.63
2023-04-08T00:09:58.346Z,7.87
2023-04-08T00:13:01.401Z,11.10
2023-04-08T00:16:03.567Z,10.57
2023-04-08T00:19:07.010Z,9.50
2023-04-08T00:22:09.126Z,8.97
2023-04-08T00:25:11.146Z,10.47
2023-04-08T00:28:13.229Z,10.43
2023-04-08T00:31:15.877Z,12.93
2023-04-08T00:34:17.906Z,13.90
2023-04-08T00:37:19.959Z,14.33
2023-04-08T00:40:22.005Z,11.73
2023-04-08T00:43:24.040Z,12.37
2023-04-08T00:46:27.052Z,14.70
2023-04-08T00:49:30.913Z,14.53
2023-04-08T00:52:33.024Z,13.47
2023-04-08T00:55:35.803Z,13.50
2023-04-08T00:58:38.774Z,15.20
2023-04-08T01:01:51.071Z,18.00
2023-04-08T01:05:13.365Z,19.70
2023-04-08T01:08:17.707Z,17.27
2023-04-08T01:11:21.634Z,18.13
2023-04-08T01:14:27.210Z,19.10
2023-04-08T01:17:31.585Z,17.23
2023-04-08T01:20:34.760Z,18.60
2023-04-08T01:24:18.482Z,20.47
2023-04-08T01:27:21.345Z,17.30
2023-04-08T01:30:26.271Z,19.20
2023-04-08T01:33:29.981Z,17.83
2023-04-08T01:36:33.324Z,15.93
2023-04-08T01:39:36.379Z,15.13
2023-04-08T01:42:38.970Z,14.73
2023-04-08T01:45:41.401Z,15.20
2023-04-08T01:48:45.021Z,13.57
2023-04-08T01:51:48.802Z,13.03
2023-04-08T01:54:51.031Z,14.07
2023-04-08T01:57:54.717Z,12.77
2023-04-08T02:00:58.115Z,13.50
2023-04-08T02:04:01.986Z,10.77
2023-04-08T02:07:05.998Z,8.13
2023-04-08T02:10:08.548Z,8.77
2023-04-08T02:13:10.806Z,10.70
2023-04-08T02:16:35.320Z,8.97
2023-04-08T02:19:56.418Z,8.03
2023-04-08T02:23:22.764Z,6.97
2023-04-08T02:26:25.956Z,7.67
2023-04-08T02:29:33.513Z,7.50
2023-04-08T02:32:37.039Z,6.33
2023-04-08T02:35:41.542Z,7.67
2023-04-08T02:38:49.306Z,6.10
2023-04-08T02:41:52.161Z,5.73
2023-04-08T02:44:57.741Z,6.23
2023-04-08T02:48:01.468Z,6.60
2023-04-08T02:51:03.787Z,5.47
2023-04-08T02:54:05.946Z,5.37
2023-04-08T02:57:08.042Z,5.13
2023-04-08T03:00:10.721Z,5.27
2023-04-08T03:03:12.863Z,5.93
2023-04-08T03:06:14.964Z,4.80
2023-04-08T03:09:17.230Z,4.87
2023-04-08T03:12:19.203Z,5.70
2023-04-08T03:15:21.469Z,6.80
2023-04-08T03:18:23.563Z,6.33
2023-04-08T03:21:25.533Z,5.10
2023-04-08T03:24:27.600Z,4.90
2023-04-08T03:27:29.713Z,6.27
2023-04-08T03:30:32.042Z,5.07
2023-04-08T03:33:34.036Z,3.93
2023-04-08T03:36:36.175Z,4.13
2023-04-08T03:39:38.839Z,3.70
2023-04-08T03:42:40.947Z,3.83
2023-04-08T03:45:42.913Z,3.63
2023-04-08T03:48:44.935Z,3.73
2023-04-08T03:51:47.145Z,4.03
2023-04-08T03:54:49.202Z,3.43
2023-04-08T03:57:51.275Z,3.80
2023-04-08T04:00:54.077Z,3.80
2023-04-08T04:03:56.309Z,3.60
2023-04-08T04:06:58.500Z,3.50
2023-04-08T04:10:00.576Z,3.57
2023-04-08T04:13:02.602Z,3.10
2023-04-08T04:16:04.974Z,3.40
2023-04-08T04:19:06.956Z,3.03
2023-04-08T04:22:09.137Z,2.83
2023-04-08T04:25:11.321Z,3.40
2023-04-08T04:28:13.868Z,3.33
2023-04-08T04:31:23.141Z,3.03
2023-04-08T04:34:25.334Z,3.20
2023-04-08T04:37:27.740Z,2.90
2023-04-08T04:40:29.789Z,3.10
2023-04-08T04:43:31.804Z,2.37
2023-04-08T04:46:33.986Z,2.80
2023-04-08T04:49:36.228Z,2.63
2023-04-08T04:52:38.320Z,1.53
2023-04-08T04:55:40.581Z,2.07
2023-04-08T04:58:42.662Z,2.53
2023-04-08T05:01:44.817Z,3.80
2023-04-08T05:04:47.160Z,2.00
2023-04-08T05:07:49.217Z,2.53
2023-04-08T05:10:51.562Z,2.20
2023-04-08T05:13:53.642Z,3.73
2023-04-08T05:16:55.947Z,5.43
2023-04-08T05:19:57.912Z,4.40
2023-04-08T05:22:59.890Z,3.70
2023-04-08T05:26:01.868Z,2.43
2023-04-08T05:29:03.941Z,1.43
2023-04-08T05:32:06.402Z,1.60
2023-04-08T05:35:09.838Z,1.20
2023-04-08T05:38:11.973Z,1.63
2023-04-08T05:41:14.013Z,1.90
2023-04-08T05:44:16.212Z,1.50
2023-04-08T05:47:18.286Z,1.70
2023-04-08T05:50:20.591Z,1.80
2023-04-08T05:53:22.593Z,2.03
2023-04-08T05:56:24.579Z,1.83
2023-04-08T05:59:26.584Z,2.20
2023-04-08T06:02:28.823Z,2.13
2023-04-08T06:05:31.766Z,1.90
2023-04-08T06:08:33.733Z,2.30
2023-04-08T06:11:36.124Z,2.50
2023-04-08T06:14:38.142Z,2.80
2023-04-08T06:17:40.437Z,2.67
2023-04-08T06:20:42.520Z,2.70
2023-04-08T06:23:44.600Z,3.30
2023-04-08T06:26:47.788Z,3.50
2023-04-08T06:29:49.792Z,3.90
2023-04-08T06:32:51.763Z,4.57
2023-04-08T06:36:03.327Z,4.90
2023-04-08T06:39:05.298Z,4.37
2023-04-08T06:42:07.656Z,4.30
2023-04-08T06:45:23.276Z,4.80
2023-04-08T06:48:30.722Z,5.07
2023-04-08T06:51:33.350Z,5.77
2023-04-08T06:54:35.636Z,5.20
2023-04-08T06:57:38.028Z,4.67
2023-04-08T07:00:43.012Z,5.30
2023-04-08T07:03:45.120Z,4.70
2023-04-08T07:06:47.197Z,5.73
2023-04-08T07:09:49.214Z,5.40
2023-04-08T07:12:52.847Z,6.80
2023-04-08T07:15:54.796Z,5.13
2023-04-08T07:18:57.201Z,6.30
2023-04-08T07:21:59.255Z,6.37
2023-04-08T07:25:01.218Z,6.13
2023-04-08T07:28:03.281Z,6.37
2023-04-08T07:31:14.382Z,6.10
2023-04-08T07:34:16.794Z,6.60
2023-04-08T07:37:18.893Z,6.43
2023-04-08T07:40:21.375Z,7.03
2023-04-08T07:43:23.467Z,6.40
2023-04-08T07:46:25.520Z,5.20
2023-04-08T07:49:27.620Z,6.37
2023-04-08T07:52:33.025Z,5.97
2023-04-08T07:55:35.652Z,5.73
2023-04-08T07:58:37.779Z,6.27
2023-04-08T08:01:39.967Z,6.87
2023-04-08T08:04:42.150Z,6.83
2023-04-08T08:07:44.279Z,6.43
2023-04-08T08:10:46.300Z,5.80
2023-04-08T08:13:48.706Z,6.67
2023-04-08T08:16:50.936Z,5.90
2023-04-08T08:19:52.962Z,5.97
2023-04-08T08:22:57.654Z,5.23
2023-04-08T08:26:03.555Z,5.60
2023-04-08T08:29:06.892Z,5.40
2023-04-08T08:32:08.946Z,4.93
2023-04-08T08:35:10.927Z,5.10
2023-04-08T08:38:14.101Z,6.77
2023-04-08T08:41:16.304Z,5.00
2023-04-08T08:44:18.361Z,5.37
2023-04-08T08:47:20.530Z,5.53
2023-04-08T08:50:22.627Z,5.27
2023-04-08T08:53:32.915Z,4.93
2023-04-08T08:56:37.359Z,5.53
2023-04-08T08:59:39.418Z,4.73
2023-04-08T09:02:41.613Z,5.40
2023-04-08T09:06:02.010Z,5.10
2023-04-08T09:09:06.416Z,4.60
2023-04-08T09:12:09.165Z,5.83
2023-04-08T09:15:11.343Z,5.10
2023-04-08T09:18:23.494Z,5.90
2023-04-08T09:21:26.796Z,5.13
2023-04-08T09:24:31.122Z,4.90
2023-04-08T09:27:36.481Z,5.80
2023-04-08T09:30:39.027Z,5.43
2023-04-08T09:33:41.322Z,6.40
2023-04-08T09:36:44.847Z,6.20
2023-04-08T09:39:46.936Z,6.20
2023-04-08T09:42:53.843Z,4.63
2023-04-08T09:45:57.514Z,5.37
2023-04-08T09:49:12.654Z,5.80
2023-04-08T09:52:40.506Z,5.10
2023-04-08T09:55:45.664Z,5.57
2023-04-08T09:58:59.958Z,5.87
2023-04-08T10:02:07.516Z,5.63
2023-04-08T10:05:13.277Z,6.20
2023-04-08T10:08:16.176Z,5.17
2023-04-08T10:11:18.249Z,5.03
2023-04-08T10:14:22.349Z,4.57
2023-04-08T10:17:29.504Z,3.90
2023-04-08T10:20:34.510Z,4.50
2023-04-08T10:23:59.525Z,4.97
2023-04-08T10:27:04.698Z,4.77
2023-04-08T10:30:31.339Z,4.17
2023-04-08T10:33:39.327Z,4.57
2023-04-08T10:36:42.986Z,4.50
2023-04-08T10:39:49.655Z,4.87
2023-04-08T10:42:58.986Z,4.73
2023-04-08T10:46:01.758Z,4.63
2023-04-08T10:49:03.965Z,5.33
2023-04-08T10:52:09.611Z,4.40
2023-04-08T10:55:12.256Z,5.07
2023-04-08T10:58:14.294Z,4.47
2023-04-08T11:01:16.494Z,6.03
2023-04-08T11:04:19.813Z,5.13
2023-04-08T11:07:21.984Z,8.63
2023-04-08T11:10:24.024Z,6.43
2023-04-08T11:13:26.295Z,6.53
2023-04-08T11:16:29.565Z,7.90
2023-04-08T11:19:31.829Z,7.70
2023-04-08T11:22:34.724Z,7.23
2023-04-08T11:25:36.846Z,7.23
2023-04-08T11:28:39.321Z,8.27
2023-04-08T11:31:44.239Z,10.43
2023-04-08T11:34:47.943Z,8.33
2023-04-08T11:37:49.997Z,9.30
2023-04-08T11:41:00.114Z,7.93
2023-04-08T11:44:03.504Z,9.50
2023-04-08T11:47:05.856Z,8.70
2023-04-08T11:50:08.748Z,9.17
2023-04-08T11:53:26.206Z,11.30
2023-04-08T11:56:30.591Z,9.23
2023-04-08T11:59:32.556Z,11.40
2023-04-08T12:02:34.690Z,13.87
2023-04-08T12:05:37.111Z,11.70
2023-04-08T12:08:39.133Z,8.93
2023-04-08T12:11:41.059Z,8.27
2023-04-08T12:14:43.067Z,8.83
2023-04-08T12:17:45.502Z,10.00
2023-04-08T12:20:47.458Z,7.87
2023-04-08T12:23:49.675Z,8.60
2023-04-08T12:26:51.844Z,8.30
2023-04-08T12:29:53.878Z,7.23
2023-04-08T12:32:55.988Z,8.60
2023-04-08T12:35:59.497Z,8.53
2023-04-08T12:39:01.594Z,7.60
2023-04-08T12:42:03.768Z,11.43
2023-04-08T12:45:06.775Z,11.20
2023-04-08T12:48:08.780Z,12.50
2023-04-08T12:51:12.176Z,11.73
2023-04-08T12:54:14.245Z,12.10
2023-04-08T12:57:16.582Z,15.33
2023-04-08T13:00:19.563Z,15.20
2023-04-08T13:03:21.794Z,14.83
2023-04-08T13:06:23.875Z,13.83
2023-04-08T13:09:25.850Z,12.60
2023-04-08T13:12:28.061Z,14.00
2023-04-08T13:15:30.086Z,15.13
2023-04-08T13:18:32.105Z,15.67
2023-04-08T13:21:34.134Z,13.73
2023-04-08T13:24:36.145Z,12.90
2023-04-08T13:27:38.143Z,13.57
2023-04-08T13:30:40.113Z,14.53
2023-04-08T13:33:42.360Z,12.20
2023-04-08T13:36:44.416Z,13.50
2023-04-08T13:39:46.572Z,13.57
2023-04-08T13:42:48.769Z,14.13
2023-04-08T13:45:50.898Z,14.30
2023-04-08T13:48:53.138Z,14.00
2023-04-08T13:51:55.458Z,15.83
2023-04-08T13:54:57.656Z,15.70
2023-04-08T13:57:59.635Z,17.43
2023-04-08T14:01:01.944Z,17.27
2023-04-08T14:04:04.005Z,15.07
2023-04-08T14:07:06.040Z,15.07
2023-04-08T14:10:08.688Z,15.50
2023-04-08T14:13:10.773Z,14.17
2023-04-08T14:16:12.731Z,14.60
2023-04-08T14:19:14.905Z,13.23
2023-04-08T14:22:18.206Z,12.70
2023-04-08T14:25:20.179Z,14.13
2023-04-08T14:28:22.310Z,12.00
2023-04-08T14:31:24.543Z,13.77
2023-04-08T14:34:27.534Z,13.10
2023-04-08T14:37:31.294Z,12.17
2023-04-08T14:40:33.271Z,13.50
2023-04-08T14:43:35.613Z,12.93
2023-04-08T14:46:38.049Z,13.30
2023-04-08T14:49:40.081Z,11.03
2023-04-08T14:52:42.125Z,12.50
2023-04-08T14:55:44.116Z,13.03
2023-04-08T14:58:46.123Z,12.57
2023-04-08T15:01:48.282Z,14.03
2023-04-08T15:04:50.337Z,12.93
2023-04-08T15:07:52.629Z,12.20
2023-04-08T15:10:54.644Z,12.63
2023-04-08T15:13:56.667Z,12.10
2023-04-08T15:16:58.687Z,11.67
2023-04-08T15:20:00.663Z,10.93
2023-04-08T15:23:03.572Z,11.57
2023-04-08T15:26:05.659Z,10.73
2023-04-08T15:29:07.677Z,12.37
2023-04-08T15:32:09.707Z,10.80
2023-04-08T15:35:11.723Z,12.20
2023-04-08T15:38:13.824Z,8.83
2023-04-08T15:41:19.802Z,11.03
2023-04-08T15:44:22.696Z,12.17
2023-04-08T15:47:24.781Z,12.33
2023-04-08T15:50:30.096Z,11.37
2023-04-08T15:53:32.476Z,11.47
2023-04-08T15:56:34.571Z,11.20
2023-04-08T15:59:36.816Z,14.17
2023-04-08T16:02:39.775Z,12.40
2023-04-08T16:05:42.179Z,13.40
2023-04-08T16:08:44.975Z,11.10
2023-04-08T16:11:47.467Z,10.30
2023-04-08T16:14:49.478Z,10.77
2023-04-08T16:17:54.975Z,11.10
2023-04-08T16:20:57.404Z,12.60
2023-04-08T16:23:59.413Z,10.40
2023-04-08T16:27:01.460Z,11.27
2023-04-08T16:30:03.766Z,12.77
2023-04-08T16:33:06.604Z,11.10
2023-04-08T16:36:08.797Z,10.93
2023-04-08T16:39:10.957Z,11.93
2023-04-08T16:42:12.902Z,12.13
2023-04-08T16:45:15.134Z,11.37
2023-04-08T16:48:17.360Z,12.33
2023-04-08T16:51:19.524Z,12.77
2023-04-08T16:54:21.830Z,12.30
2023-04-08T16:57:23.865Z,13.07
2023-04-08T17:00:26.201Z,12.70
2023-04-08T17:03:28.255Z,11.37
2023-04-08T17:06:31.466Z,12.93
2023-04-08T17:09:33.440Z,11.10
2023-04-08T17:12:35.595Z,10.70
2023-04-08T17:15:38.251Z,12.50
2023-04-08T17:18:40.766Z,11.57
2023-04-08T17:21:42.927Z,14.07
2023-04-08T17:24:47.828Z,11.23
2023-04-08T17:27:50.233Z,11.63
2023-04-08T17:30:52.624Z,12.87
2023-04-08T17:33:54.625Z,11.17
2023-04-08T17:36:57.007Z,10.63
2023-04-08T17:39:59.081Z,10.57
2023-04-08T17:43:01.936Z,11.20
2023-04-08T17:46:04.256Z,14.03
2023-04-08T17:49:06.335Z,10.57
2023-04-08T17:52:08.393Z,12.40
2023-04-08T17:55:10.653Z,14.30
2023-04-08T17:58:12.669Z,11.53
2023-04-08T18:01:14.877Z,12.37
2023-04-08T18:04:17.123Z,11.17
2023-04-08T18:07:19.156Z,11.57
2023-04-08T18:10:23.211Z,10.07
2023-04-08T18:13:25.296Z,11.80
2023-04-08T18:16:27.416Z,12.17
2023-04-08T18:19:29.522Z,13.47
2023-04-08T18:22:31.555Z,12.83
2023-04-08T18:25:34.730Z,11.40
2023-04-08T18:28:37.058Z,11.53
2023-04-08T18:31:39.271Z,11.60
2023-04-08T18:34:41.960Z,12.03
2023-04-08T18:37:43.968Z,13.70
2023-04-08T18:40:46.330Z,11.17
2023-04-08T18:43:48.419Z,14.77
2023-04-08T18:46:50.484Z,12.47
2023-04-08T18:49:52.517Z,13.33
2023-04-08T18:52:54.958Z,11.70
2023-04-08T18:55:57.069Z,12.07
2023-04-08T18:58:59.614Z,12.27
2023-04-08T19:02:01.789Z,12.90
2023-04-08T19:05:04.262Z,13.87
2023-04-08T19:08:06.412Z,14.07
2023-04-08T19:11:08.392Z,13.80
2023-04-08T19:14:10.501Z,14.00
2023-04-08T19:17:12.531Z,14.40
2023-04-08T19:20:14.603Z,15.60
2023-04-08T19:23:18.190Z,12.27
2023-04-08T19:26:20.175Z,14.57
2023-04-08T19:29:23.605Z,14.83
2023-04-08T19:32:26.706Z,12.70
2023-04-08T19:35:28.891Z,11.93
2023-04-08T19:38:30.847Z,10.83
2023-04-08T19:41:33.010Z,12.20
2023-04-08T19:44:35.228Z,12.57
2023-04-08T19:47:37.359Z,12.87
2023-04-08T19:50:39.679Z,15.67
2023-04-08T19:53:41.797Z,11.13
2023-04-08T19:56:44.394Z,12.90
2023-04-08T19:59:48.108Z,12.77
2023-04-08T20:02:50.252Z,14.13
2023-04-08T20:05:52.735Z,16.27
2023-04-08T20:08:54.967Z,14.30
2023-04-08T20:12:03.817Z,17.00
2023-04-08T20:15:09.363Z,15.13
2023-04-08T20:18:16.682Z,14.70
2023-04-08T20:21:18.810Z,16.57
2023-04-08T20:24:20.823Z,14.00
2023-04-08T20:27:23.055Z,13.40
2023-04-08T20:30:25.165Z,16.33
2023-04-08T20:33:27.323Z,12.87
2023-04-08T20:36:30.793Z,14.43
2023-04-08T20:39:32.797Z,14.63
2023-04-08T20:42:34.849Z,17.00
2023-04-08T20:45:38.216Z,15.93
2023-04-08T20:48:40.165Z,14.90
2023-04-08T20:51:42.586Z,16.43
2023-04-08T20:54:44.565Z,18.77
2023-04-08T20:57:48.158Z,16.37
2023-04-08T21:00:50.221Z,16.90
2023-04-08T21:03:52.317Z,17.47
2023-04-08T21:06:54.532Z,16.70
2023-04-08T21:09:56.571Z,19.83
2023-04-08T21:12:58.646Z,15.57
2023-04-08T21:16:00.811Z,17.40
2023-04-08T21:19:04.239Z,18.23
2023-04-08T21:22:06.398Z,16.87
2023-04-08T21:25:08.530Z,16.33
2023-04-08T21:28:10.525Z,17.67
2023-04-08T21:31:13.564Z,18.47
2023-04-08T21:34:16.193Z,17.53
2023-04-08T21:37:18.178Z,20.03
2023-04-08T21:40:20.255Z,20.80
2023-04-08T21:43:22.768Z,17.30
2023-04-08T21:46:24.779Z,17.93
2023-04-08T21:49:29.990Z,18.57
2023-04-08T21:52:31.970Z,19.83
2023-04-08T21:55:34.091Z,20.67
2023-04-08T21:58:36.274Z,22.27
2023-04-08T22:01:38.385Z,19.77
2023-04-08T22:04:40.868Z,21.67
2023-04-08T22:07:42.988Z,21.87
2023-04-08T22:10:45.061Z,22.27
2023-04-08T22:13:47.129Z,20.63
2023-04-08T22:16:49.209Z,21.07
2023-04-08T22:19:51.425Z,21.60
2023-04-08T22:22:53.745Z,20.27
2023-04-08T22:25:55.962Z,20.33
2023-04-08T22:28:58.006Z,19.30
2023-04-08T22:32:00.067Z,21.33
2023-04-08T22:35:02.303Z,20.63
2023-04-08T22:38:04.459Z,18.83
2023-04-08T22:41:06.569Z,22.17
2023-04-08T22:44:08.732Z,21.20
2023-04-08T22:47:11.120Z,20.23
2023-04-08T22:50:13.139Z,19.53
2023-04-08T22:53:15.168Z,19.00
2023-04-08T22:56:17.232Z,20.70
2023-04-08T22:59:19.218Z,17.57
2023-04-08T23:02:21.429Z,20.10
2023-04-08T23:05:24.276Z,19.13
2023-04-08T23:08:26.375Z,19.47
2023-04-08T23:11:28.452Z,21.47
2023-04-08T23:14:30.545Z,18.20
2023-04-08T23:17:32.658Z,17.50
2023-04-08T23:20:35.736Z,18.50
2023-04-08T23:23:37.799Z,17.37
2023-04-08T23:26:39.813Z,18.70
2023-04-08T23:29:41.818Z,18.87
2023-04-08T23:32:43.824Z,16.73
2023-04-08T23:35:46.510Z,18.17
2023-04-08T23:38:49.813Z,18.90
2023-04-08T23:41:51.958Z,16.00
2023-04-08T23:44:54.928Z,16.33
2023-04-08T23:47:57.014Z,16.27
2023-04-08T23:50:58.987Z,16.03
2023-04-08T23:54:01.033Z,17.37
2023-04-08T23:57:03.106Z,16.43
